createdAt,value
2018-09-13T00:03:58.367Z,90.00
2018-09-13T00:08:06.555Z,90.00
2018-09-13T00:12:14.740Z,90.00
2018-09-13T00:16:22.891Z,90.30
2018-09-13T00:20:31.040Z,90.40
2018-09-13T00:24:39.198Z,90.50
2018-09-13T00:28:47.404Z,90.60
2018-09-13T00:32:55.560Z,90.70
2018-09-13T00:37:03.695Z,90.80
2018-09-13T00:41:11.865Z,90.60
2018-09-13T00:45:20.017Z,91.00
2018-09-13T00:49:28.181Z,91.30
2018-09-13T00:53:36.696Z,91.00
2018-09-13T00:57:44.846Z,91.00
2018-09-13T01:01:53.007Z,91.30
2018-09-13T01:06:01.171Z,91.40
2018-09-13T01:10:09.326Z,91.50
2018-09-13T01:14:17.492Z,91.50
2018-09-13T01:18:25.607Z,91.40
2018-09-13T01:22:33.759Z,91.10
2018-09-13T01:26:41.887Z,91.40
2018-09-13T01:30:50.043Z,91.60
2018-09-13T01:34:58.200Z,91.80
2018-09-13T01:39:07.523Z,92.30
2018-09-13T01:43:15.663Z,92.10
2018-09-13T01:47:23.799Z,92.40
2018-09-13T01:51:31.955Z,92.30
2018-09-13T01:55:40.107Z,92.20
2018-09-13T01:59:48.268Z,92.30
2018-09-13T02:03:56.400Z,92.20
2018-09-13T02:08:04.568Z,92.20
2018-09-13T02:12:12.692Z,92.10
2018-09-13T02:16:20.918Z,92.40
2018-09-13T02:20:29.051Z,92.30
2018-09-13T02:24:37.183Z,92.30
2018-09-13T02:28:45.304Z,92.30
2018-09-13T02:32:53.432Z,92.50
2018-09-13T02:37:01.536Z,92.60
2018-09-13T02:41:09.655Z,92.60
2018-09-13T02:45:17.779Z,92.60
2018-09-13T02:49:25.908Z,92.70
2018-09-13T02:53:34.093Z,92.90
2018-09-13T02:57:42.224Z,92.90
2018-09-13T03:01:50.345Z,93.00
2018-09-13T03:05:58.476Z,93.40
2018-09-13T03:10:06.643Z,94.00
2018-09-13T03:14:14.789Z,94.10
2018-09-13T03:18:22.967Z,93.90
2018-09-13T03:22:31.188Z,93.90
2018-09-13T03:26:39.344Z,93.90
2018-09-13T03:30:47.541Z,93.90
2018-09-13T03:34:55.675Z,94.10
2018-09-13T03:39:05.819Z,94.00
2018-09-13T03:43:13.948Z,93.90
2018-09-13T03:47:22.099Z,93.90
2018-09-13T03:51:30.307Z,94.00
2018-09-13T03:55:38.446Z,93.90
2018-09-13T03:59:46.591Z,94.30
2018-09-13T04:03:54.703Z,94.10
2018-09-13T04:08:02.829Z,93.80
2018-09-13T04:12:10.961Z,93.80
2018-09-13T04:16:19.078Z,93.90
2018-09-13T04:20:27.218Z,93.70
2018-09-13T04:24:35.327Z,93.80
2018-09-13T04:28:43.470Z,93.90
2018-09-13T04:32:51.567Z,94.00
2018-09-13T04:36:59.679Z,94.00
2018-09-13T04:41:07.864Z,94.00
2018-09-13T04:45:16.062Z,94.20
2018-09-13T04:49:24.179Z,94.10
2018-09-13T04:53:33.037Z,93.90
2018-09-13T04:57:41.147Z,93.80
2018-09-13T05:01:49.255Z,93.70
2018-09-13T05:05:57.394Z,93.60
2018-09-13T05:10:05.696Z,93.70
2018-09-13T05:14:13.819Z,93.90
2018-09-13T05:18:21.954Z,94.10
2018-09-13T05:22:30.085Z,94.00
2018-09-13T05:26:38.195Z,94.00
2018-09-13T05:30:46.307Z,94.10
2018-09-13T05:34:54.596Z,94.10
2018-09-13T05:39:03.116Z,93.80
2018-09-13T05:43:11.244Z,93.80
2018-09-13T05:47:19.367Z,93.60
2018-09-13T05:51:27.521Z,93.50
2018-09-13T05:55:35.659Z,93.50
2018-09-13T05:59:43.844Z,93.60
2018-09-13T06:03:51.959Z,93.70
2018-09-13T06:08:00.103Z,93.80
2018-09-13T06:12:08.190Z,93.60
2018-09-13T06:16:16.313Z,93.50
2018-09-13T06:20:24.423Z,93.60
2018-09-13T06:24:32.572Z,93.40
2018-09-13T06:28:40.697Z,93.60
2018-09-13T06:32:48.836Z,93.60
2018-09-13T06:36:56.943Z,93.50
2018-09-13T06:41:05.085Z,93.70
2018-09-13T06:45:13.207Z,94.30
2018-09-13T06:49:21.340Z,94.60
2018-09-13T06:53:29.513Z,95.00
2018-09-13T06:57:37.625Z,95.40
2018-09-13T07:01:45.744Z,95.70
2018-09-13T07:05:53.867Z,96.00
2018-09-13T07:10:02.016Z,96.00
2018-09-13T07:14:10.156Z,96.20
2018-09-13T07:22:26.226Z,96.10
2018-09-13T07:26:34.360Z,95.70
2018-09-13T07:30:42.518Z,95.50
2018-09-13T07:34:50.658Z,95.40
2018-09-13T07:38:59.711Z,95.50
2018-09-13T07:43:07.866Z,95.20
2018-09-13T07:47:16.007Z,95.00
2018-09-13T07:51:24.155Z,95.00
2018-09-13T07:55:32.576Z,94.70
2018-09-13T07:59:40.752Z,94.60
2018-09-13T08:03:48.936Z,94.50
2018-09-13T08:07:57.076Z,94.30
2018-09-13T08:12:05.373Z,94.00
2018-09-13T08:16:13.410Z,93.70
2018-09-13T08:20:21.557Z,93.80
2018-09-13T08:24:29.691Z,93.40
2018-09-13T08:28:37.841Z,92.80
2018-09-13T08:32:45.981Z,92.70
2018-09-13T08:36:54.176Z,92.50
2018-09-13T08:41:02.255Z,92.60
2018-09-13T08:45:10.401Z,92.20
2018-09-13T08:49:18.527Z,91.70
2018-09-13T08:53:26.675Z,91.30
2018-09-13T08:57:34.848Z,91.00
2018-09-13T09:01:43.004Z,91.20
2018-09-13T09:05:51.150Z,90.80
2018-09-13T09:09:59.297Z,90.60
2018-09-13T09:14:07.430Z,90.80
2018-09-13T09:18:15.583Z,90.90
2018-09-13T09:22:23.745Z,91.10
2018-09-13T09:26:31.887Z,91.90
2018-09-13T09:30:40.031Z,91.90
2018-09-13T09:34:48.281Z,91.80
2018-09-13T09:38:56.403Z,91.80
2018-09-13T09:43:04.544Z,91.80
2018-09-13T09:47:12.703Z,91.80
2018-09-13T09:51:20.834Z,92.10
2018-09-13T09:55:28.991Z,92.60
2018-09-13T09:59:37.193Z,92.00
2018-09-13T10:08:18.692Z,90.30
2018-09-13T10:12:26.864Z,90.70
2018-09-13T10:16:40.380Z,91.10
2018-09-13T10:20:53.904Z,91.00
2018-09-13T10:25:07.532Z,90.80
2018-09-13T10:33:34.764Z,90.60
2018-09-13T10:37:48.412Z,90.30
2018-09-13T10:42:02.088Z,89.80
2018-09-13T10:46:15.817Z,89.70
2018-09-13T10:50:24.403Z,89.20
2018-09-13T10:54:39.413Z,89.00
2018-09-13T10:58:47.548Z,87.60
2018-09-13T11:02:55.697Z,88.30
2018-09-13T11:07:03.881Z,88.00
2018-09-13T11:11:12.307Z,87.70
2018-09-13T11:15:25.656Z,87.50
2018-09-13T11:19:33.817Z,85.90
2018-09-13T11:23:41.960Z,85.30
2018-09-13T11:27:50.117Z,84.80
2018-09-13T11:31:58.273Z,84.40
2018-09-13T11:36:06.428Z,83.20
2018-09-13T11:40:15.243Z,82.40
2018-09-13T11:44:23.370Z,82.50
2018-09-13T11:48:31.578Z,82.70
2018-09-13T11:52:39.753Z,83.50
2018-09-13T11:56:47.917Z,83.00
2018-09-13T12:00:56.144Z,82.60
2018-09-13T12:05:04.421Z,82.80
2018-09-13T12:09:14.200Z,82.00
2018-09-13T12:13:22.350Z,80.90
2018-09-13T12:17:30.495Z,81.00
2018-09-13T12:21:38.658Z,81.90
2018-09-13T12:25:46.881Z,82.90
2018-09-13T12:29:55.057Z,82.60
2018-09-13T12:34:03.212Z,82.60
2018-09-13T12:38:11.373Z,81.80
2018-09-13T12:42:19.525Z,81.20
2018-09-13T12:46:27.686Z,79.90
2018-09-13T12:50:35.854Z,80.20
2018-09-13T12:54:43.992Z,80.20
2018-09-13T12:58:52.146Z,80.70
2018-09-13T13:07:08.240Z,81.50
2018-09-13T13:11:16.396Z,82.90
2018-09-13T13:15:24.536Z,84.10
2018-09-13T13:19:32.700Z,85.30
2018-09-13T13:23:40.854Z,86.70
2018-09-13T13:27:49.046Z,86.60
2018-09-13T13:31:57.541Z,86.60
2018-09-13T13:36:05.699Z,86.90
2018-09-13T13:40:13.832Z,87.00
2018-09-13T13:44:21.989Z,86.50
2018-09-13T13:48:30.161Z,85.90
2018-09-13T13:52:38.329Z,85.20
2018-09-13T13:56:46.479Z,84.10
2018-09-13T14:00:54.648Z,84.10
2018-09-13T14:05:02.805Z,83.40
2018-09-13T14:09:13.036Z,83.30
2018-09-13T14:13:21.199Z,83.70
2018-09-13T14:17:29.349Z,85.50
2018-09-13T14:21:37.505Z,86.70
2018-09-13T14:25:45.691Z,84.80
2018-09-13T14:29:53.849Z,83.50
2018-09-13T14:34:01.985Z,83.50
2018-09-13T14:38:10.140Z,84.60
2018-09-13T14:42:18.292Z,85.90
2018-09-13T14:46:26.464Z,87.30
2018-09-13T14:50:34.601Z,88.30
2018-09-13T14:54:42.764Z,88.70
2018-09-13T15:02:58.845Z,89.60
2018-09-13T15:07:06.990Z,89.50
2018-09-13T15:11:15.133Z,89.80
2018-09-13T15:15:23.340Z,89.70
2018-09-13T15:19:31.581Z,89.60
2018-09-13T15:23:39.768Z,88.90
2018-09-13T15:27:47.920Z,89.00
2018-09-13T15:31:56.116Z,89.30
2018-09-13T15:48:28.008Z,90.20
2018-09-13T15:52:36.145Z,90.20
2018-09-13T15:56:44.296Z,90.30
2018-09-13T16:00:52.431Z,90.20
2018-09-13T16:05:00.585Z,90.10
2018-09-13T16:09:09.520Z,90.00
2018-09-13T16:13:17.685Z,89.20
2018-09-13T16:17:25.936Z,88.80
2018-09-13T16:21:34.086Z,89.00
2018-09-13T16:25:42.772Z,89.30
2018-09-13T16:29:50.926Z,88.70
2018-09-13T16:33:59.129Z,88.50
2018-09-13T16:38:12.788Z,88.60
2018-09-13T16:42:26.319Z,88.10
2018-09-13T16:46:39.899Z,88.30
2018-09-13T16:50:48.060Z,88.40
2018-09-13T16:54:56.242Z,88.60
2018-09-13T16:59:04.609Z,89.00
2018-09-13T17:03:12.875Z,89.40
2018-09-13T17:07:21.012Z,90.00
2018-09-13T17:11:29.148Z,90.10
2018-09-13T17:15:37.299Z,90.30
2018-09-13T17:19:45.437Z,90.50
2018-09-13T17:23:53.576Z,90.60
2018-09-13T17:28:01.852Z,90.70
2018-09-13T17:32:10.029Z,90.90
2018-09-13T17:36:18.344Z,91.00
2018-09-13T17:40:26.544Z,91.20
2018-09-13T17:44:34.724Z,91.10
2018-09-13T17:48:42.913Z,91.20
2018-09-13T17:52:51.061Z,91.50
2018-09-13T17:56:59.635Z,91.60
2018-09-13T18:01:07.809Z,92.20
2018-09-13T18:05:15.988Z,91.90
2018-09-13T18:09:24.278Z,92.00
2018-09-13T18:13:32.476Z,91.80
2018-09-13T18:17:40.701Z,91.80
2018-09-13T18:21:48.946Z,92.00
2018-09-13T18:25:57.125Z,92.00
2018-09-13T18:30:05.428Z,92.10
2018-09-13T18:38:21.509Z,92.30
2018-09-13T18:42:29.717Z,92.20
2018-09-13T18:46:37.951Z,92.30
2018-09-13T18:50:46.137Z,92.50
2018-09-13T18:54:54.314Z,92.60
2018-09-13T18:59:02.545Z,92.80
2018-09-13T19:03:10.716Z,92.90
2018-09-13T19:07:18.859Z,93.00
2018-09-13T19:11:27.045Z,93.00
2018-09-13T19:19:43.484Z,93.20
2018-09-13T19:23:51.882Z,93.40
2018-09-13T19:28:00.212Z,93.60
2018-09-13T19:32:08.421Z,93.70
2018-09-13T19:36:16.741Z,93.80
2018-09-13T19:40:25.433Z,93.80
2018-09-13T19:44:33.591Z,94.00
2018-09-13T19:48:41.807Z,94.00
2018-09-13T19:52:50.126Z,94.10
2018-09-13T19:56:58.333Z,94.00
2018-09-13T20:01:13.285Z,94.00
2018-09-13T20:05:21.652Z,94.10
2018-09-13T20:09:29.832Z,94.30
2018-09-13T20:13:37.984Z,94.30
2018-09-13T20:17:46.149Z,94.40
2018-09-13T20:21:54.344Z,94.50
2018-09-13T20:26:02.494Z,94.40
2018-09-13T20:30:10.623Z,94.50
2018-09-13T20:34:18.753Z,94.60
2018-09-13T20:38:26.891Z,94.60
2018-09-13T20:42:35.090Z,94.60
2018-09-13T20:46:43.180Z,94.60
2018-09-13T20:54:59.415Z,94.90
2018-09-13T20:59:07.580Z,95.00
2018-09-13T21:03:15.743Z,95.00
2018-09-13T21:07:23.906Z,94.90
2018-09-13T21:11:32.052Z,95.00
2018-09-13T21:15:40.216Z,95.30
2018-09-13T21:19:48.362Z,95.40
2018-09-13T21:23:56.674Z,95.40
2018-09-13T21:28:04.838Z,95.50
2018-09-13T21:32:13.000Z,95.80
2018-09-13T21:36:21.159Z,96.00
2018-09-13T21:40:29.328Z,96.00
2018-09-13T21:44:37.481Z,95.90
2018-09-13T21:48:45.764Z,95.70
2018-09-13T21:52:53.925Z,95.60
2018-09-13T21:57:02.104Z,95.60
2018-09-13T22:01:10.271Z,95.50
2018-09-13T22:05:18.429Z,95.50
2018-09-13T22:09:26.565Z,95.30
2018-09-13T22:13:34.709Z,95.10
2018-09-13T22:17:42.858Z,95.00
2018-09-13T22:21:51.008Z,95.00
2018-09-13T22:25:59.155Z,94.80
2018-09-13T22:30:07.425Z,94.50
2018-09-13T22:34:15.564Z,94.40
2018-09-13T22:38:23.712Z,94.30
2018-09-13T22:42:31.888Z,94.40
2018-09-13T22:46:40.036Z,94.30
2018-09-13T22:50:48.316Z,94.30
2018-09-13T22:54:56.455Z,94.20
2018-09-13T22:59:09.097Z,94.10
2018-09-13T23:03:17.256Z,94.10
2018-09-13T23:07:25.397Z,94.30
2018-09-13T23:11:33.545Z,93.70
2018-09-13T23:15:41.667Z,93.80
2018-09-13T23:19:49.812Z,93.80
2018-09-13T23:23:58.088Z,93.80
2018-09-13T23:28:06.521Z,93.70
2018-09-13T23:32:14.667Z,93.80
2018-09-13T23:36:23.052Z,93.80
2018-09-13T23:40:31.357Z,93.90
2018-09-13T23:44:39.368Z,93.80
2018-09-13T23:48:47.518Z,93.40
2018-09-13T23:52:55.676Z,93.20
2018-09-13T23:57:03.839Z,92.90
